sensor_id;sensor_type;location;lat;lon;timestamp;temperature;humidity
7341;DHT22;6870;50.944;6.932;2022-09-09T00:02:08;25.90;27.80
7341;DHT22;6870;50.944;6.932;2022-09-09T00:04:42;25.90;28.30
7341;DHT22;6870;50.944;6.932;2022-09-09T00:07:18;25.80;28.30
7341;DHT22;6870;50.944;6.932;2022-09-09T00:09:56;26.10;28.20
7341;DHT22;6870;50.944;6.932;2022-09-09T00:12:38;25.80;28.40
7341;DHT22;6870;50.944;6.932;2022-09-09T00:15:13;25.80;28.50
7341;DHT22;6870;50.944;6.932;2022-09-09T00:17:47;25.70;28.20
7341;DHT22;6870;50.944;6.932;2022-09-09T00:20:25;26.00;28.60
7341;DHT22;6870;50.944;6.932;2022-09-09T00:23:00;25.80;28.30
7341;DHT22;6870;50.944;6.932;2022-09-09T00:25:39;25.70;28.50
7341;DHT22;6870;50.944;6.932;2022-09-09T00:28:17;25.70;28.60
7341;DHT22;6870;50.944;6.932;2022-09-09T00:30:47;25.80;28.70
7341;DHT22;6870;50.944;6.932;2022-09-09T00:33:19;25.90;28.40
7341;DHT22;6870;50.944;6.932;2022-09-09T00:35:50;25.90;28.80
7341;DHT22;6870;50.944;6.932;2022-09-09T00:38:24;25.70;28.70
7341;DHT22;6870;50.944;6.932;2022-09-09T00:41:00;25.80;29.40
7341;DHT22;6870;50.944;6.932;2022-09-09T00:43:33;25.80;28.90
7341;DHT22;6870;50.944;6.932;2022-09-09T00:46:14;25.80;29.00
7341;DHT22;6870;50.944;6.932;2022-09-09T00:49:00;25.80;29.00
7341;DHT22;6870;50.944;6.932;2022-09-09T00:51:45;25.90;29.10
7341;DHT22;6870;50.944;6.932;2022-09-09T00:54:31;25.80;28.60
7341;DHT22;6870;50.944;6.932;2022-09-09T00:57:13;26.00;29.20
7341;DHT22;6870;50.944;6.932;2022-09-09T00:59:47;26.00;29.10
7341;DHT22;6870;50.944;6.932;2022-09-09T01:02:27;25.70;28.70
7341;DHT22;6870;50.944;6.932;2022-09-09T01:05:04;25.80;28.90
7341;DHT22;6870;50.944;6.932;2022-09-09T01:07:35;25.90;29.10
7341;DHT22;6870;50.944;6.932;2022-09-09T01:10:07;25.90;28.90
7341;DHT22;6870;50.944;6.932;2022-09-09T01:12:41;25.60;28.90
7341;DHT22;6870;50.944;6.932;2022-09-09T01:15:12;25.60;28.70
7341;DHT22;6870;50.944;6.932;2022-09-09T01:17:53;25.50;28.50
7341;DHT22;6870;50.944;6.932;2022-09-09T01:20:31;26.10;28.80
7341;DHT22;6870;50.944;6.932;2022-09-09T01:23:27;26.10;28.90
7341;DHT22;6870;50.944;6.932;2022-09-09T01:26:15;25.80;29.20
7341;DHT22;6870;50.944;6.932;2022-09-09T01:28:47;25.80;28.70
7341;DHT22;6870;50.944;6.932;2022-09-09T01:31:23;25.90;29.20
7341;DHT22;6870;50.944;6.932;2022-09-09T01:33:54;25.80;29.00
7341;DHT22;6870;50.944;6.932;2022-09-09T01:36:29;25.90;29.30
7341;DHT22;6870;50.944;6.932;2022-09-09T01:39:00;25.70;29.00
7341;DHT22;6870;50.944;6.932;2022-09-09T01:41:29;26.00;29.50
7341;DHT22;6870;50.944;6.932;2022-09-09T01:43:57;25.70;29.40
7341;DHT22;6870;50.944;6.932;2022-09-09T01:46:27;26.10;29.60
7341;DHT22;6870;50.944;6.932;2022-09-09T01:48:56;25.70;29.10
7341;DHT22;6870;50.944;6.932;2022-09-09T01:51:24;25.70;29.10
7341;DHT22;6870;50.944;6.932;2022-09-09T01:53:52;25.80;29.50
7341;DHT22;6870;50.944;6.932;2022-09-09T01:56:30;25.80;29.30
7341;DHT22;6870;50.944;6.932;2022-09-09T01:59:16;25.50;30.20
7341;DHT22;6870;50.944;6.932;2022-09-09T02:01:57;25.20;29.30
7341;DHT22;6870;50.944;6.932;2022-09-09T02:04:37;25.70;30.00
7341;DHT22;6870;50.944;6.932;2022-09-09T02:07:19;25.20;29.70
7341;DHT22;6870;50.944;6.932;2022-09-09T02:10:02;25.20;29.80
7341;DHT22;6870;50.944;6.932;2022-09-09T02:12:36;25.70;30.00
7341;DHT22;6870;50.944;6.932;2022-09-09T02:15:14;25.60;29.50
7341;DHT22;6870;50.944;6.932;2022-09-09T02:17:46;25.70;30.00
7341;DHT22;6870;50.944;6.932;2022-09-09T02:20:18;25.60;29.90
7341;DHT22;6870;50.944;6.932;2022-09-09T02:22:49;25.60;29.60
7341;DHT22;6870;50.944;6.932;2022-09-09T02:25:21;25.50;29.80
7341;DHT22;6870;50.944;6.932;2022-09-09T02:27:52;25.50;29.80
7341;DHT22;6870;50.944;6.932;2022-09-09T02:30:20;25.70;29.60
7341;DHT22;6870;50.944;6.932;2022-09-09T02:32:51;25.70;29.60
7341;DHT22;6870;50.944;6.932;2022-09-09T02:35:24;25.70;29.80
7341;DHT22;6870;50.944;6.932;2022-09-09T02:37:55;25.60;29.80
7341;DHT22;6870;50.944;6.932;2022-09-09T02:40:25;25.80;30.00
7341;DHT22;6870;50.944;6.932;2022-09-09T02:42:55;25.80;29.90
7341;DHT22;6870;50.944;6.932;2022-09-09T02:45:25;25.40;29.60
7341;DHT22;6870;50.944;6.932;2022-09-09T02:48:01;25.50;29.80
7341;DHT22;6870;50.944;6.932;2022-09-09T02:50:34;25.40;29.80
7341;DHT22;6870;50.944;6.932;2022-09-09T02:53:08;25.70;30.00
7341;DHT22;6870;50.944;6.932;2022-09-09T02:55:41;25.40;29.70
7341;DHT22;6870;50.944;6.932;2022-09-09T02:58:17;25.80;30.20
7341;DHT22;6870;50.944;6.932;2022-09-09T03:00:47;25.70;29.90
7341;DHT22;6870;50.944;6.932;2022-09-09T03:03:16;25.60;30.10
7341;DHT22;6870;50.944;6.932;2022-09-09T03:05:46;25.70;29.90
7341;DHT22;6870;50.944;6.932;2022-09-09T03:08:14;25.60;29.80
7341;DHT22;6870;50.944;6.932;2022-09-09T03:10:42;25.50;30.00
7341;DHT22;6870;50.944;6.932;2022-09-09T03:13:10;25.50;29.80
7341;DHT22;6870;50.944;6.932;2022-09-09T03:15:43;25.20;29.90
7341;DHT22;6870;50.944;6.932;2022-09-09T03:18:11;25.60;30.00
7341;DHT22;6870;50.944;6.932;2022-09-09T03:20:39;25.70;30.00
7341;DHT22;6870;50.944;6.932;2022-09-09T03:23:08;25.50;30.00
7341;DHT22;6870;50.944;6.932;2022-09-09T03:25:46;25.60;30.50
7341;DHT22;6870;50.944;6.932;2022-09-09T03:28:15;25.70;30.50
7341;DHT22;6870;50.944;6.932;2022-09-09T03:30:45;25.60;30.50
7341;DHT22;6870;50.944;6.932;2022-09-09T03:33:13;25.50;30.40
7341;DHT22;6870;50.944;6.932;2022-09-09T03:35:45;25.60;30.60
7341;DHT22;6870;50.944;6.932;2022-09-09T03:38:15;25.60;30.70
7341;DHT22;6870;50.944;6.932;2022-09-09T03:40:49;25.30;30.50
7341;DHT22;6870;50.944;6.932;2022-09-09T03:43:18;25.10;30.40
7341;DHT22;6870;50.944;6.932;2022-09-09T03:45:47;25.30;30.20
7341;DHT22;6870;50.944;6.932;2022-09-09T03:48:17;25.70;30.70
7341;DHT22;6870;50.944;6.932;2022-09-09T03:50:46;25.50;30.90
7341;DHT22;6870;50.944;6.932;2022-09-09T03:53:15;25.50;30.80
7341;DHT22;6870;50.944;6.932;2022-09-09T03:55:44;25.70;31.00
7341;DHT22;6870;50.944;6.932;2022-09-09T03:58:13;25.40;30.70
7341;DHT22;6870;50.944;6.932;2022-09-09T04:00:42;25.20;30.20
7341;DHT22;6870;50.944;6.932;2022-09-09T04:03:13;25.50;30.50
7341;DHT22;6870;50.944;6.932;2022-09-09T04:05:42;25.40;30.30
7341;DHT22;6870;50.944;6.932;2022-09-09T04:08:10;25.60;30.90
7341;DHT22;6870;50.944;6.932;2022-09-09T04:10:38;25.70;30.60
7341;DHT22;6870;50.944;6.932;2022-09-09T04:13:06;25.40;30.40
7341;DHT22;6870;50.944;6.932;2022-09-09T04:15:34;25.30;30.20
7341;DHT22;6870;50.944;6.932;2022-09-09T04:18:03;25.40;30.50
7341;DHT22;6870;50.944;6.932;2022-09-09T04:20:33;25.40;30.80
7341;DHT22;6870;50.944;6.932;2022-09-09T04:23:01;25.50;31.20
7341;DHT22;6870;50.944;6.932;2022-09-09T04:25:30;25.50;30.40
7341;DHT22;6870;50.944;6.932;2022-09-09T04:27:58;25.40;30.50
7341;DHT22;6870;50.944;6.932;2022-09-09T04:30:26;25.20;30.30
7341;DHT22;6870;50.944;6.932;2022-09-09T04:32:54;25.60;31.10
7341;DHT22;6870;50.944;6.932;2022-09-09T04:35:24;25.50;31.10
7341;DHT22;6870;50.944;6.932;2022-09-09T04:37:55;25.70;31.30
7341;DHT22;6870;50.944;6.932;2022-09-09T04:40:22;25.10;30.30
7341;DHT22;6870;50.944;6.932;2022-09-09T04:42:51;25.20;31.00
7341;DHT22;6870;50.944;6.932;2022-09-09T04:45:19;25.40;30.80
7341;DHT22;6870;50.944;6.932;2022-09-09T04:47:47;25.50;31.80
7341;DHT22;6870;50.944;6.932;2022-09-09T04:50:15;25.50;31.10
7341;DHT22;6870;50.944;6.932;2022-09-09T04:52:43;25.50;30.80
7341;DHT22;6870;50.944;6.932;2022-09-09T04:55:13;25.30;30.90
7341;DHT22;6870;50.944;6.932;2022-09-09T04:57:41;25.50;30.80
7341;DHT22;6870;50.944;6.932;2022-09-09T05:00:10;25.70;31.00
7341;DHT22;6870;50.944;6.932;2022-09-09T05:02:39;25.40;31.20
7341;DHT22;6870;50.944;6.932;2022-09-09T05:05:09;25.20;31.20
7341;DHT22;6870;50.944;6.932;2022-09-09T05:07:37;25.50;31.20
7341;DHT22;6870;50.944;6.932;2022-09-09T05:10:06;25.40;31.00
7341;DHT22;6870;50.944;6.932;2022-09-09T05:12:35;25.50;31.30
7341;DHT22;6870;50.944;6.932;2022-09-09T05:15:04;25.40;29.70
7341;DHT22;6870;50.944;6.932;2022-09-09T05:17:33;25.70;29.90
7341;DHT22;6870;50.944;6.932;2022-09-09T05:20:02;25.50;28.60
7341;DHT22;6870;50.944;6.932;2022-09-09T05:22:35;25.20;27.50
7341;DHT22;6870;50.944;6.932;2022-09-09T05:25:04;24.80;28.60
7341;DHT22;6870;50.944;6.932;2022-09-09T05:27:35;24.90;28.70
7341;DHT22;6870;50.944;6.932;2022-09-09T05:30:03;24.90;28.10
7341;DHT22;6870;50.944;6.932;2022-09-09T05:32:32;24.60;27.90
7341;DHT22;6870;50.944;6.932;2022-09-09T05:35:00;24.30;28.30
7341;DHT22;6870;50.944;6.932;2022-09-09T05:37:30;24.20;28.50
7341;DHT22;6870;50.944;6.932;2022-09-09T05:39:58;23.70;29.30
7341;DHT22;6870;50.944;6.932;2022-09-09T05:42:30;23.80;29.90
7341;DHT22;6870;50.944;6.932;2022-09-09T05:45:00;23.80;29.70
7341;DHT22;6870;50.944;6.932;2022-09-09T05:47:28;23.60;30.10
7341;DHT22;6870;50.944;6.932;2022-09-09T05:49:56;23.60;30.00
7341;DHT22;6870;50.944;6.932;2022-09-09T05:52:24;23.60;29.80
7341;DHT22;6870;50.944;6.932;2022-09-09T05:54:53;23.90;29.90
7341;DHT22;6870;50.944;6.932;2022-09-09T05:57:23;23.60;29.40
7341;DHT22;6870;50.944;6.932;2022-09-09T05:59:51;23.40;29.20
7341;DHT22;6870;50.944;6.932;2022-09-09T06:02:21;24.00;29.60
7341;DHT22;6870;50.944;6.932;2022-09-09T06:04:49;24.00;30.00
7341;DHT22;6870;50.944;6.932;2022-09-09T06:07:18;23.50;29.90
7341;DHT22;6870;50.944;6.932;2022-09-09T06:09:46;23.50;29.10
7341;DHT22;6870;50.944;6.932;2022-09-09T06:12:14;23.40;29.10
7341;DHT22;6870;50.944;6.932;2022-09-09T06:14:42;23.40;29.00
7341;DHT22;6870;50.944;6.932;2022-09-09T06:17:12;23.50;29.60
7341;DHT22;6870;50.944;6.932;2022-09-09T06:19:41;23.30;29.40
7341;DHT22;6870;50.944;6.932;2022-09-09T06:22:09;22.80;29.00
7341;DHT22;6870;50.944;6.932;2022-09-09T06:24:38;22.90;30.00
7341;DHT22;6870;50.944;6.932;2022-09-09T06:27:06;22.90;30.30
7341;DHT22;6870;50.944;6.932;2022-09-09T06:29:34;23.00;30.40
7341;DHT22;6870;50.944;6.932;2022-09-09T06:32:02;22.90;30.60
7341;DHT22;6870;50.944;6.932;2022-09-09T06:34:31;22.80;30.80
7341;DHT22;6870;50.944;6.932;2022-09-09T06:37:00;22.90;30.30
7341;DHT22;6870;50.944;6.932;2022-09-09T06:39:28;22.80;30.20
7341;DHT22;6870;50.944;6.932;2022-09-09T06:41:56;22.90;30.20
7341;DHT22;6870;50.944;6.932;2022-09-09T06:44:25;23.20;29.70
7341;DHT22;6870;50.944;6.932;2022-09-09T06:46:57;23.50;29.20
7341;DHT22;6870;50.944;6.932;2022-09-09T06:49:25;23.40;29.10
7341;DHT22;6870;50.944;6.932;2022-09-09T06:51:53;23.50;29.20
7341;DHT22;6870;50.944;6.932;2022-09-09T06:54:24;23.60;29.60
7341;DHT22;6870;50.944;6.932;2022-09-09T06:56:52;24.10;28.70
7341;DHT22;6870;50.944;6.932;2022-09-09T06:59:20;23.90;28.20
7341;DHT22;6870;50.944;6.932;2022-09-09T07:01:48;23.90;28.00
7341;DHT22;6870;50.944;6.932;2022-09-09T07:04:22;24.20;28.20
7341;DHT22;6870;50.944;6.932;2022-09-09T07:06:49;24.20;27.80
7341;DHT22;6870;50.944;6.932;2022-09-09T07:09:19;24.00;27.40
7341;DHT22;6870;50.944;6.932;2022-09-09T07:11:49;24.30;27.30
7341;DHT22;6870;50.944;6.932;2022-09-09T07:14:19;24.10;27.50
7341;DHT22;6870;50.944;6.932;2022-09-09T07:16:48;24.30;27.50
7341;DHT22;6870;50.944;6.932;2022-09-09T07:19:16;24.30;27.50
7341;DHT22;6870;50.944;6.932;2022-09-09T07:21:44;24.10;27.10
7341;DHT22;6870;50.944;6.932;2022-09-09T07:24:13;24.20;26.80
7341;DHT22;6870;50.944;6.932;2022-09-09T07:26:42;24.20;26.70
7341;DHT22;6870;50.944;6.932;2022-09-09T07:29:11;24.20;26.60
7341;DHT22;6870;50.944;6.932;2022-09-09T07:31:46;24.20;26.70
7341;DHT22;6870;50.944;6.932;2022-09-09T07:34:15;24.80;26.70
7341;DHT22;6870;50.944;6.932;2022-09-09T07:36:43;24.10;26.30
7341;DHT22;6870;50.944;6.932;2022-09-09T07:39:12;24.80;26.70
7341;DHT22;6870;50.944;6.932;2022-09-09T07:41:43;24.20;26.40
7341;DHT22;6870;50.944;6.932;2022-09-09T07:44:14;24.70;25.80
7341;DHT22;6870;50.944;6.932;2022-09-09T07:46:43;24.80;26.10
7341;DHT22;6870;50.944;6.932;2022-09-09T07:49:13;24.50;25.30
7341;DHT22;6870;50.944;6.932;2022-09-09T07:51:43;24.70;25.60
7341;DHT22;6870;50.944;6.932;2022-09-09T07:54:14;24.70;25.10
7341;DHT22;6870;50.944;6.932;2022-09-09T07:56:42;24.80;25.10
7341;DHT22;6870;50.944;6.932;2022-09-09T07:59:11;24.70;24.80
7341;DHT22;6870;50.944;6.932;2022-09-09T08:01:42;24.40;24.90
7341;DHT22;6870;50.944;6.932;2022-09-09T08:04:13;24.50;24.90
7341;DHT22;6870;50.944;6.932;2022-09-09T08:06:44;24.50;24.80
7341;DHT22;6870;50.944;6.932;2022-09-09T08:09:14;24.30;24.50
7341;DHT22;6870;50.944;6.932;2022-09-09T08:11:43;24.10;24.10
7341;DHT22;6870;50.944;6.932;2022-09-09T08:14:13;24.30;24.40
7341;DHT22;6870;50.944;6.932;2022-09-09T08:16:43;24.50;24.70
7341;DHT22;6870;50.944;6.932;2022-09-09T08:19:12;24.30;24.40
7341;DHT22;6870;50.944;6.932;2022-09-09T08:21:43;24.90;24.40
7341;DHT22;6870;50.944;6.932;2022-09-09T08:24:12;24.40;24.10
7341;DHT22;6870;50.944;6.932;2022-09-09T08:26:43;24.80;23.80
7341;DHT22;6870;50.944;6.932;2022-09-09T08:29:13;24.90;23.80
7341;DHT22;6870;50.944;6.932;2022-09-09T08:31:44;25.00;24.60
7341;DHT22;6870;50.944;6.932;2022-09-09T08:34:13;25.20;24.60
7341;DHT22;6870;50.944;6.932;2022-09-09T08:36:44;25.10;24.80
7341;DHT22;6870;50.944;6.932;2022-09-09T08:39:14;25.20;24.80
7341;DHT22;6870;50.944;6.932;2022-09-09T08:41:57;25.60;24.30
7341;DHT22;6870;50.944;6.932;2022-09-09T08:44:44;25.10;24.10
7341;DHT22;6870;50.944;6.932;2022-09-09T08:47:22;25.40;24.30
7341;DHT22;6870;50.944;6.932;2022-09-09T08:50:12;25.60;24.40
7341;DHT22;6870;50.944;6.932;2022-09-09T08:52:51;25.50;24.50
7341;DHT22;6870;50.944;6.932;2022-09-09T08:55:27;25.50;24.50
7341;DHT22;6870;50.944;6.932;2022-09-09T08:58:08;25.30;24.40
7341;DHT22;6870;50.944;6.932;2022-09-09T09:00:55;25.40;24.50
7341;DHT22;6870;50.944;6.932;2022-09-09T09:03:35;25.40;24.60
7341;DHT22;6870;50.944;6.932;2022-09-09T09:06:19;25.10;24.20
7341;DHT22;6870;50.944;6.932;2022-09-09T09:09:00;25.60;24.50
7341;DHT22;6870;50.944;6.932;2022-09-09T09:11:35;25.50;24.40
7341;DHT22;6870;50.944;6.932;2022-09-09T09:14:10;25.50;24.40
7341;DHT22;6870;50.944;6.932;2022-09-09T09:16:50;25.50;24.30
7341;DHT22;6870;50.944;6.932;2022-09-09T09:19:21;25.70;24.30
7341;DHT22;6870;50.944;6.932;2022-09-09T09:21:54;25.30;24.10
7341;DHT22;6870;50.944;6.932;2022-09-09T09:24:30;25.40;24.10
7341;DHT22;6870;50.944;6.932;2022-09-09T09:27:12;25.70;24.10
7341;DHT22;6870;50.944;6.932;2022-09-09T09:29:42;25.40;23.80
7341;DHT22;6870;50.944;6.932;2022-09-09T09:32:35;25.50;23.10
7341;DHT22;6870;50.944;6.932;2022-09-09T09:35:10;25.10;23.10
7341;DHT22;6870;50.944;6.932;2022-09-09T09:37:41;25.50;23.10
7341;DHT22;6870;50.944;6.932;2022-09-09T09:40:30;25.70;23.20
7341;DHT22;6870;50.944;6.932;2022-09-09T09:43:00;25.10;23.50
7341;DHT22;6870;50.944;6.932;2022-09-09T09:45:32;25.50;23.90
7341;DHT22;6870;50.944;6.932;2022-09-09T09:48:05;25.60;23.90
7341;DHT22;6870;50.944;6.932;2022-09-09T09:50:47;25.30;23.60
7341;DHT22;6870;50.944;6.932;2022-09-09T09:53:21;25.70;23.80
7341;DHT22;6870;50.944;6.932;2022-09-09T09:55:56;25.70;23.90
7341;DHT22;6870;50.944;6.932;2022-09-09T09:58:27;25.70;23.40
7341;DHT22;6870;50.944;6.932;2022-09-09T10:00:59;25.40;23.00
7341;DHT22;6870;50.944;6.932;2022-09-09T10:03:30;24.90;23.10
7341;DHT22;6870;50.944;6.932;2022-09-09T10:06:04;24.50;22.80
7341;DHT22;6870;50.944;6.932;2022-09-09T10:08:34;25.10;24.60
7341;DHT22;6870;50.944;6.932;2022-09-09T10:11:26;25.10;24.90
7341;DHT22;6870;50.944;6.932;2022-09-09T10:14:05;25.20;24.50
7341;DHT22;6870;50.944;6.932;2022-09-09T10:16:55;25.60;25.00
7341;DHT22;6870;50.944;6.932;2022-09-09T10:19:32;25.60;24.90
7341;DHT22;6870;50.944;6.932;2022-09-09T10:22:11;25.60;25.40
7341;DHT22;6870;50.944;6.932;2022-09-09T10:25:08;25.30;25.10
7341;DHT22;6870;50.944;6.932;2022-09-09T10:27:52;25.60;24.90
7341;DHT22;6870;50.944;6.932;2022-09-09T10:30:39;25.60;24.80
7341;DHT22;6870;50.944;6.932;2022-09-09T10:33:21;25.50;25.00
7341;DHT22;6870;50.944;6.932;2022-09-09T10:36:01;25.70;25.30
7341;DHT22;6870;50.944;6.932;2022-09-09T10:38:39;25.60;24.90
7341;DHT22;6870;50.944;6.932;2022-09-09T10:41:15;25.70;25.30
7341;DHT22;6870;50.944;6.932;2022-09-09T10:44:12;25.80;24.80
7341;DHT22;6870;50.944;6.932;2022-09-09T10:46:56;25.70;24.60
7341;DHT22;6870;50.944;6.932;2022-09-09T10:49:50;25.70;24.60
7341;DHT22;6870;50.944;6.932;2022-09-09T10:52:34;25.60;24.50
7341;DHT22;6870;50.944;6.932;2022-09-09T10:55:10;25.80;24.50
7341;DHT22;6870;50.944;6.932;2022-09-09T10:57:45;25.60;24.30
7341;DHT22;6870;50.944;6.932;2022-09-09T11:00:17;25.50;23.90
7341;DHT22;6870;50.944;6.932;2022-09-09T11:02:49;25.90;24.10
7341;DHT22;6870;50.944;6.932;2022-09-09T11:05:23;26.20;24.10
7341;DHT22;6870;50.944;6.932;2022-09-09T11:07:59;25.90;23.80
7341;DHT22;6870;50.944;6.932;2022-09-09T11:10:37;26.10;23.90
7341;DHT22;6870;50.944;6.932;2022-09-09T11:13:11;26.30;24.10
7341;DHT22;6870;50.944;6.932;2022-09-09T11:15:46;26.20;23.90
7341;DHT22;6870;50.944;6.932;2022-09-09T11:18:20;25.90;24.00
7341;DHT22;6870;50.944;6.932;2022-09-09T11:20:51;26.00;24.20
7341;DHT22;6870;50.944;6.932;2022-09-09T11:23:27;26.30;24.40
7341;DHT22;6870;50.944;6.932;2022-09-09T11:26:05;26.30;24.50
7341;DHT22;6870;50.944;6.932;2022-09-09T11:28:46;26.20;24.40
7341;DHT22;6870;50.944;6.932;2022-09-09T11:31:43;26.20;24.60
7341;DHT22;6870;50.944;6.932;2022-09-09T11:34:25;25.60;24.20
7341;DHT22;6870;50.944;6.932;2022-09-09T11:37:17;25.60;24.20
7341;DHT22;6870;50.944;6.932;2022-09-09T11:40:17;25.70;24.40
7341;DHT22;6870;50.944;6.932;2022-09-09T11:42:47;25.90;24.40
7341;DHT22;6870;50.944;6.932;2022-09-09T11:45:22;25.80;24.40
7341;DHT22;6870;50.944;6.932;2022-09-09T11:47:54;25.90;24.40
7341;DHT22;6870;50.944;6.932;2022-09-09T11:50:29;25.80;24.40
7341;DHT22;6870;50.944;6.932;2022-09-09T11:53:20;25.70;24.40
7341;DHT22;6870;50.944;6.932;2022-09-09T11:56:12;26.00;24.60
7341;DHT22;6870;50.944;6.932;2022-09-09T11:58:43;26.10;24.60
7341;DHT22;6870;50.944;6.932;2022-09-09T12:01:15;25.80;24.50
7341;DHT22;6870;50.944;6.932;2022-09-09T12:04:12;25.70;24.50
7341;DHT22;6870;50.944;6.932;2022-09-09T12:06:51;25.80;24.50
7341;DHT22;6870;50.944;6.932;2022-09-09T12:09:25;25.80;24.60
7341;DHT22;6870;50.944;6.932;2022-09-09T12:12:22;26.00;24.80
7341;DHT22;6870;50.944;6.932;2022-09-09T12:17:51;25.80;24.80
7341;DHT22;6870;50.944;6.932;2022-09-09T12:20:23;25.60;24.70
7341;DHT22;6870;50.944;6.932;2022-09-09T12:23:00;25.70;24.70
7341;DHT22;6870;50.944;6.932;2022-09-09T12:25:46;25.80;24.80
7341;DHT22;6870;50.944;6.932;2022-09-09T12:28:24;25.90;24.80
7341;DHT22;6870;50.944;6.932;2022-09-09T12:30:58;25.80;24.70
7341;DHT22;6870;50.944;6.932;2022-09-09T12:33:34;25.80;24.60
7341;DHT22;6870;50.944;6.932;2022-09-09T12:36:04;25.90;24.70
7341;DHT22;6870;50.944;6.932;2022-09-09T12:38:40;25.70;24.60
7341;DHT22;6870;50.944;6.932;2022-09-09T12:41:18;25.70;24.60
7341;DHT22;6870;50.944;6.932;2022-09-09T12:43:49;25.70;24.60
7341;DHT22;6870;50.944;6.932;2022-09-09T12:46:29;25.70;24.70
7341;DHT22;6870;50.944;6.932;2022-09-09T12:49:03;25.70;24.70
7341;DHT22;6870;50.944;6.932;2022-09-09T12:51:33;25.60;24.70
7341;DHT22;6870;50.944;6.932;2022-09-09T12:54:03;25.70;24.70
7341;DHT22;6870;50.944;6.932;2022-09-09T12:56:32;25.80;24.70
7341;DHT22;6870;50.944;6.932;2022-09-09T12:59:03;26.00;24.60
7341;DHT22;6870;50.944;6.932;2022-09-09T13:01:33;26.10;24.40
7341;DHT22;6870;50.944;6.932;2022-09-09T13:04:01;26.10;24.00
7341;DHT22;6870;50.944;6.932;2022-09-09T13:06:32;26.00;23.90
7341;DHT22;6870;50.944;6.932;2022-09-09T13:09:02;26.20;23.90
7341;DHT22;6870;50.944;6.932;2022-09-09T13:11:34;26.30;24.10
7341;DHT22;6870;50.944;6.932;2022-09-09T13:14:06;25.80;23.90
7341;DHT22;6870;50.944;6.932;2022-09-09T13:16:40;26.10;24.20
7341;DHT22;6870;50.944;6.932;2022-09-09T13:19:13;26.30;24.30
7341;DHT22;6870;50.944;6.932;2022-09-09T13:21:43;25.80;24.00
7341;DHT22;6870;50.944;6.932;2022-09-09T13:24:28;25.90;24.20
7341;DHT22;6870;50.944;6.932;2022-09-09T13:26:59;25.70;24.10
7341;DHT22;6870;50.944;6.932;2022-09-09T13:29:31;25.80;24.10
7341;DHT22;6870;50.944;6.932;2022-09-09T13:32:04;25.90;24.20
7341;DHT22;6870;50.944;6.932;2022-09-09T13:34:35;25.80;24.00
7341;DHT22;6870;50.944;6.932;2022-09-09T13:37:05;26.20;24.30
7341;DHT22;6870;50.944;6.932;2022-09-09T13:39:35;25.80;23.70
7341;DHT22;6870;50.944;6.932;2022-09-09T13:42:05;26.40;24.20
7341;DHT22;6870;50.944;6.932;2022-09-09T13:44:39;26.20;24.10
7341;DHT22;6870;50.944;6.932;2022-09-09T13:47:19;25.90;24.10
7341;DHT22;6870;50.944;6.932;2022-09-09T13:49:48;26.40;24.20
7341;DHT22;6870;50.944;6.932;2022-09-09T13:52:17;26.60;23.60
7341;DHT22;6870;50.944;6.932;2022-09-09T13:54:48;26.20;23.10
7341;DHT22;6870;50.944;6.932;2022-09-09T13:57:19;26.70;23.00
7341;DHT22;6870;50.944;6.932;2022-09-09T13:59:50;26.70;22.80
7341;DHT22;6870;50.944;6.932;2022-09-09T14:02:31;26.70;22.70
7341;DHT22;6870;50.944;6.932;2022-09-09T14:04:59;26.80;22.90
7341;DHT22;6870;50.944;6.932;2022-09-09T14:07:27;26.50;23.00
7341;DHT22;6870;50.944;6.932;2022-09-09T14:09:55;26.60;23.30
7341;DHT22;6870;50.944;6.932;2022-09-09T14:12:24;26.60;23.60
7341;DHT22;6870;50.944;6.932;2022-09-09T14:14:53;26.50;23.60
7341;DHT22;6870;50.944;6.932;2022-09-09T14:17:21;26.50;23.80
7341;DHT22;6870;50.944;6.932;2022-09-09T14:19:49;26.40;23.90
7341;DHT22;6870;50.944;6.932;2022-09-09T14:22:17;26.30;23.90
7341;DHT22;6870;50.944;6.932;2022-09-09T14:24:45;26.40;24.20
7341;DHT22;6870;50.944;6.932;2022-09-09T14:27:13;26.10;24.00
7341;DHT22;6870;50.944;6.932;2022-09-09T14:29:41;25.90;24.10
7341;DHT22;6870;50.944;6.932;2022-09-09T14:32:11;26.00;24.50
7341;DHT22;6870;50.944;6.932;2022-09-09T14:34:39;26.20;24.30
7341;DHT22;6870;50.944;6.932;2022-09-09T14:37:08;25.90;24.20
7341;DHT22;6870;50.944;6.932;2022-09-09T14:39:36;25.90;24.30
7341;DHT22;6870;50.944;6.932;2022-09-09T14:42:04;25.80;24.30
7341;DHT22;6870;50.944;6.932;2022-09-09T14:44:33;26.00;24.40
7341;DHT22;6870;50.944;6.932;2022-09-09T14:47:01;26.20;24.60
7341;DHT22;6870;50.944;6.932;2022-09-09T14:49:30;25.90;24.60
7341;DHT22;6870;50.944;6.932;2022-09-09T14:51:58;25.90;24.60
7341;DHT22;6870;50.944;6.932;2022-09-09T14:54:26;25.80;24.60
7341;DHT22;6870;50.944;6.932;2022-09-09T14:56:55;25.70;24.60
7341;DHT22;6870;50.944;6.932;2022-09-09T14:59:24;25.90;24.80
7341;DHT22;6870;50.944;6.932;2022-09-09T15:01:53;26.00;24.80
7341;DHT22;6870;50.944;6.932;2022-09-09T15:04:21;25.60;24.70
7341;DHT22;6870;50.944;6.932;2022-09-09T15:06:50;25.90;24.80
7341;DHT22;6870;50.944;6.932;2022-09-09T15:09:19;25.90;24.90
7341;DHT22;6870;50.944;6.932;2022-09-09T15:11:47;26.20;25.00
7341;DHT22;6870;50.944;6.932;2022-09-09T15:14:15;26.10;25.00
7341;DHT22;6870;50.944;6.932;2022-09-09T15:16:51;26.00;25.10
7341;DHT22;6870;50.944;6.932;2022-09-09T15:19:19;26.10;25.10
7341;DHT22;6870;50.944;6.932;2022-09-09T15:21:47;25.90;25.20
7341;DHT22;6870;50.944;6.932;2022-09-09T15:24:17;26.00;25.40
7341;DHT22;6870;50.944;6.932;2022-09-09T15:26:45;25.90;25.40
7341;DHT22;6870;50.944;6.932;2022-09-09T15:29:12;25.90;25.20
7341;DHT22;6870;50.944;6.932;2022-09-09T15:31:40;26.10;25.30
7341;DHT22;6870;50.944;6.932;2022-09-09T15:34:08;26.00;25.20
7341;DHT22;6870;50.944;6.932;2022-09-09T15:36:37;25.90;25.30
7341;DHT22;6870;50.944;6.932;2022-09-09T15:39:07;25.90;25.40
7341;DHT22;6870;50.944;6.932;2022-09-09T15:41:40;25.80;25.30
7341;DHT22;6870;50.944;6.932;2022-09-09T15:44:09;25.90;25.30
7341;DHT22;6870;50.944;6.932;2022-09-09T15:46:40;26.20;25.60
7341;DHT22;6870;50.944;6.932;2022-09-09T15:49:10;26.10;25.50
7341;DHT22;6870;50.944;6.932;2022-09-09T15:51:40;25.60;25.30
7341;DHT22;6870;50.944;6.932;2022-09-09T15:54:12;25.80;25.50
7341;DHT22;6870;50.944;6.932;2022-09-09T15:56:45;25.60;25.30
7341;DHT22;6870;50.944;6.932;2022-09-09T15:59:15;25.60;25.50
7341;DHT22;6870;50.944;6.932;2022-09-09T16:01:43;25.80;25.50
7341;DHT22;6870;50.944;6.932;2022-09-09T16:04:12;25.60;25.30
7341;DHT22;6870;50.944;6.932;2022-09-09T16:06:40;25.60;25.30
7341;DHT22;6870;50.944;6.932;2022-09-09T16:09:08;25.70;25.40
7341;DHT22;6870;50.944;6.932;2022-09-09T16:11:38;25.40;25.20
7341;DHT22;6870;50.944;6.932;2022-09-09T16:14:07;26.10;25.60
7341;DHT22;6870;50.944;6.932;2022-09-09T16:16:35;25.90;25.50
7341;DHT22;6870;50.944;6.932;2022-09-09T16:19:05;25.70;25.40
7341;DHT22;6870;50.944;6.932;2022-09-09T16:21:38;25.70;25.50
7341;DHT22;6870;50.944;6.932;2022-09-09T16:24:08;25.80;25.60
7341;DHT22;6870;50.944;6.932;2022-09-09T16:26:39;25.90;25.80
7341;DHT22;6870;50.944;6.932;2022-09-09T16:29:15;25.70;25.40
7341;DHT22;6870;50.944;6.932;2022-09-09T16:31:44;25.60;25.30
7341;DHT22;6870;50.944;6.932;2022-09-09T16:34:14;25.70;25.40
7341;DHT22;6870;50.944;6.932;2022-09-09T16:36:43;25.60;25.30
7341;DHT22;6870;50.944;6.932;2022-09-09T16:39:13;25.80;25.40
7341;DHT22;6870;50.944;6.932;2022-09-09T16:41:43;26.00;25.90